Latest Weather Observations for Lismore Airport

IDN60801

Issued at 9:33 pm EDT Monday 22 December 2014 (issued every 30 minutes, with the page automatically refreshed every 10 minutes)

About weather observations | Map of weather stations | Latest weather observations for NSW | Other Formats
Station Details ID: 058214 Name: LISMORE AIRPORT AWS Lat: -28.83 Lon: 153.26 Height: 9.21 m
Data from the previous 72 hours. | See also: Recent months for locations in New South Wales
Date/Time
EDT
Temp
°C
App
Temp
°C
Dew
Point
Rel
Hum
%
Delta-T
°C
Wind Press
QNH
hPa
Press
MSL
hPa
Rain
since 9 am
mm
Dir
 
Spd
km/h
Gust
km/h
Spd
kts
Gust
kts
22/09:30pm 20.9 21.0 15.4 71 3.3 E 9 11 5 6 1017.7 1017.7 0.0
22/09:00pm 21.4 21.2 15.7 70 3.4 E 11 15 6 8 1017.7 1017.7 0.0
22/08:30pm 21.7 21.9 15.8 69 3.5 E 9 13 5 7 1017.3 1017.3 0.0
22/08:00pm 22.7 21.8 15.8 65 4.1 E 15 24 8 13 1017.2 1017.2 0.0
22/07:30pm 23.2 22.4 15.0 60 4.9 E 13 17 7 9 1016.9 1016.9 0.0
22/07:00pm 24.2 23.5 15.4 58 5.3 E 13 20 7 11 1016.5 1016.5 0.0
22/06:30pm 25.0 23.9 15.3 55 5.8 E 15 24 8 13 1016.0 1016.0 0.0
22/06:00pm 25.6 23.2 14.4 50 6.7 ENE 20 28 11 15 1015.5 1015.5 0.0
22/05:30pm 26.2 23.8 14.3 48 7.1 ESE 20 28 11 15 1015.6 1015.6 0.0
22/05:00pm 26.2 24.0 15.0 50 6.7 ESE 20 28 11 15 1015.7 1015.7 0.0
22/04:30pm 26.8 25.0 15.5 50 6.9 ESE 19 26 10 14 1016.0 1016.0 0.0
22/04:00pm 27.1 25.3 16.1 51 6.8 SE 20 28 11 15 1016.4 1016.4 0.0
22/03:30pm 27.4 26.4 16.7 52 6.7 ESE 17 24 9 13 1016.6 1016.6 0.0
22/03:00pm 27.7 26.2 16.3 49 7.0 ESE 19 28 10 15 1016.5 1016.5 0.0
22/02:30pm 27.6 25.9 16.2 49 7.0 SE 20 28 11 15 1016.8 1016.8 0.0
22/02:00pm 27.6 26.0 15.9 49 7.2 ESE 19 28 10 15 1017.0 1017.0 0.0
22/01:30pm 27.5 26.1 15.5 48 7.3 SE 17 24 9 13 1017.3 1017.3 0.0
22/01:00pm 26.8 25.4 15.5 50 6.9 SE 17 24 9 13 1017.9 1017.9 0.0
22/12:30pm 27.9 27.0 15.9 48 7.4 SSE 15 24 8 13 1018.1 1018.1 0.0
22/12:00pm 27.1 26.8 16.4 52 6.6 SSE 13 24 7 13 1018.3 1018.3 0.0
22/11:30am 26.8 27.1 16.1 52 6.6 SE 9 19 5 10 1018.4 1018.4 0.0
22/11:00am 26.7 26.0 16.3 53 6.4 SSE 15 20 8 11 1018.6 1018.6 0.0
22/10:30am 25.6 26.0 16.4 56 5.7 E 9 19 5 10 1018.6 1018.6 0.0
22/10:00am 25.0 26.6 17.0 61 4.9 N 4 11 2 6 1018.5 1018.5 0.0
22/09:30am 24.5 26.2 18.0 67 4.1 S 6 11 3 6 1018.5 1018.5 0.0
22/09:00am 24.5 26.2 18.0 67 4.1 S 6 11 3 6 1018.5 1018.5 0.0
22/08:30am 22.3 24.9 17.4 74 3.0 CALM 0 0 0 0 1018.4 1018.4 0.0
22/08:00am 21.1 23.6 17.3 79 2.3 CALM 0 0 0 0 1018.3 1018.3 0.0
22/07:30am 19.1 21.4 16.7 86 1.4 CALM 0 0 0 0 1018.0 1018.0 0.0
22/07:00am 18.3 20.8 17.3 94 0.6 CALM 0 0 0 0 1017.7 1017.7 0.0
22/06:30am 17.3 19.7 17.0 98 0.2 CALM 0 0 0 0 1017.4 1017.4 0.0
22/06:00am 15.7 17.4 15.1 96 0.3 CALM 0 0 0 0 1017.3 1017.3 0.0
22/05:30am 15.8 17.4 15.0 95 0.5 CALM 0 0 0 0 1016.9 1016.9 0.0
22/05:00am 15.3 15.5 14.3 94 0.6 WSW 6 9 3 5 1016.8 1016.8 0.0
22/04:30am 16.9 19.0 16.3 96 0.4 CALM 0 0 0 0 1016.6 1016.6 0.0
22/03:30am 17.4 17.5 15.6 89 1.1 N 9 9 5 5 1016.4 1016.4 0.0
22/03:00am 17.3 17.8 15.5 89 1.1 N 7 9 4 5 1016.6 1016.6 0.0
22/02:30am 17.6 17.7 15.6 88 1.2 W 9 13 5 7 1016.5 1016.5 0.0
22/02:00am 19.1 20.0 16.1 83 1.8 ESE 6 11 3 6 1017.0 1017.0 0.0
22/01:30am 20.3 22.8 17.3 83 1.8 CALM 0 0 0 0 1017.9 1017.9 0.0
22/01:00am 20.1 22.8 17.7 86 1.5 CALM 0 0 0 0 1018.6 1018.6 0.0
22/12:30am 19.6 22.0 17.0 85 1.6 CALM 0 0 0 0 1018.8 1018.8 0.0
22/12:05am 18.8 20.8 15.9 83 1.7 CALM 0 0 0 0 1018.7 1018.7 0.0
22/12:00am 18.7 20.6 15.8 83 1.7 CALM 0 0 0 0 1018.7 1018.7 0.0
 
Date/Time
EDT
Temp
°C
App
Temp
°C
Dew
Point
Rel
Hum
%
Delta-T
°C
Wind Press
QNH
hPa
Press
MSL
hPa
Rain
since 9 am
mm
Dir
 
Spd
km/h
Gust
km/h
Spd
kts
Gust
kts
21/11:39pm 18.8 20.6 15.5 81 1.9 CALM 0 0 0 0 1018.7 1018.7 0.0
21/11:30pm 19.1 20.9 15.4 79 2.2 CALM 0 0 0 0 1018.6 1018.6 0.0
21/11:00pm 21.3 22.8 15.8 71 3.3 E 2 15 1 8 1018.3 1018.3 0.0
21/10:30pm 21.2 22.1 16.0 72 3.1 ENE 6 9 3 5 1018.3 1018.3 0.0
21/10:00pm 22.0 21.5 15.8 68 3.7 ENE 13 19 7 10 1018.2 1018.2 0.0
21/09:30pm 22.3 21.4 15.9 67 3.9 ENE 15 20 8 11 1017.9 1017.9 0.0
21/09:00pm 22.2 22.5 16.0 68 3.7 E 9 15 5 8 1017.9 1017.9 0.0
21/08:30pm 22.1 22.5 16.4 70 3.5 E 9 13 5 7 1017.6 1017.6 0.0
21/08:00pm 22.8 22.9 16.6 68 3.8 ENE 11 17 6 9 1017.5 1017.5 0.0
21/07:30pm 23.2 21.9 16.7 67 4.0 E 19 30 10 16 1016.9 1016.9 0.0
21/07:00pm 23.7 22.9 17.0 66 4.1 ENE 17 26 9 14 1016.5 1016.5 0.0
21/06:30pm 24.1 22.7 17.1 65 4.3 ENE 20 32 11 17 1015.9 1015.9 0.0
21/06:00pm 25.0 23.0 17.5 63 4.7 NE 24 35 13 19 1015.6 1015.6 0.0
21/05:30pm 25.8 23.8 17.4 59 5.2 ENE 24 35 13 19 1015.6 1015.6 0.0
21/05:00pm 26.4 24.7 18.0 60 5.3 ENE 24 41 13 22 1015.5 1015.5 0.0
21/04:30pm 27.1 25.5 18.4 59 5.5 NE 24 35 13 19 1015.4 1015.4 0.0
21/04:00pm 27.2 25.8 18.8 60 5.4 ENE 24 37 13 20 1015.5 1015.5 0.0
21/03:30pm 27.4 26.0 18.9 59 5.5 ENE 24 33 13 18 1015.5 1015.5 0.0
21/03:00pm 28.1 27.3 19.3 58 5.7 ENE 22 30 12 16 1015.6 1015.6 0.0
21/02:30pm 26.8 26.0 18.1 59 5.5 E 19 30 10 16 1016.0 1016.0 0.0
21/02:00pm 28.6 29.7 18.1 53 6.7 ENE 9 20 5 11 1016.3 1016.3 0.0
21/01:30pm 28.4 29.0 17.6 52 6.8 E 11 19 6 10 1016.7 1016.7 0.0
21/01:00pm 27.6 28.6 17.7 54 6.2 NE 9 17 5 9 1017.2 1017.2 0.0
21/12:30pm 27.2 27.5 17.9 56 5.9 ENE 13 20 7 11 1017.7 1017.7 0.0
21/12:00pm 26.6 26.9 17.9 59 5.5 ENE 13 22 7 12 1018.1 1018.1 0.0
21/11:30am 25.6 25.7 17.5 61 5.1 NNE 13 19 7 10 1018.4 1018.4 0.0
21/11:00am 25.7 25.7 18.1 63 4.8 NE 15 20 8 11 1018.5 1018.5 0.0
21/10:30am 25.1 25.9 18.1 65 4.4 NNE 11 17 6 9 1018.6 1018.6 0.0
21/10:00am 24.1 24.6 17.4 66 4.2 NNE 11 17 6 9 1018.5 1018.5 0.0
21/09:30am 23.8 24.3 17.5 68 3.9 NE 11 17 6 9 1018.6 1018.6 0.0
21/09:00am 23.9 23.8 17.9 69 3.7 NE 15 20 8 11 1018.5 1018.5 0.0
21/08:30am 23.2 24.3 17.9 72 3.3 NE 9 17 5 9 1018.5 1018.5 0.0
21/08:00am 22.1 23.9 18.7 81 2.1 NE 7 11 4 6 1018.1 1018.1 0.0
21/07:30am 21.1 22.9 18.3 84 1.7 N 6 9 3 5 1017.9 1017.9 0.0
21/07:00am 20.6 23.6 18.5 88 1.3 CALM 0 0 0 0 1017.7 1017.7 0.0
21/06:30am 20.4 23.5 18.7 90 1.1 CALM 0 0 0 0 1017.3 1017.3 0.0
21/06:00am 20.0 22.9 18.3 90 1.1 CALM 0 0 0 0 1016.9 1016.9 0.0
21/05:30am 19.9 22.8 18.2 90 1.1 CALM 0 0 0 0 1016.6 1016.6 0.0
21/05:00am 19.9 22.9 18.4 91 0.9 CALM 0 0 0 0 1016.5 1016.5 0.0
21/04:30am 19.7 22.4 17.8 89 1.2 CALM 0 0 0 0 1016.4 1016.4 0.0
21/04:00am 19.8 22.4 17.6 87 1.3 CALM 0 0 0 0 1016.3 1016.3 0.0
21/03:30am 19.9 22.6 17.7 87 1.4 CALM 0 0 0 0 1016.3 1016.3 0.0
21/03:00am 19.6 22.1 17.2 86 1.5 CALM 0 0 0 0 1016.4 1016.4 0.0
21/02:30am 20.0 22.6 17.4 85 1.6 CALM 0 0 0 0 1016.6 1016.6 0.0
21/02:00am 20.5 23.1 17.5 83 1.8 CALM 0 0 0 0 1016.9 1016.9 0.0
21/01:30am 20.7 23.3 17.5 82 2.0 CALM 0 0 0 0 1017.2 1017.2 0.0
21/01:00am 21.0 23.2 17.4 80 2.2 W 2 6 1 3 1017.5 1017.5 0.0
21/12:30am 20.8 23.2 17.0 79 2.3 CALM 0 0 0 0 1017.6 1017.6 0.0
21/12:00am 21.0 23.0 17.0 78 2.4 NNW 2 6 1 3 1017.7 1017.7 0.0
 
Date/Time
EDT
Temp
°C
App
Temp
°C
Dew
Point
Rel
Hum
%
Delta-T
°C
Wind Press
QNH
hPa
Press
MSL
hPa
Rain
since 9 am
mm
Dir
 
Spd
km/h
Gust
km/h
Spd
kts
Gust
kts
20/11:30pm 21.3 22.3 16.9 76 2.7 NNE 7 9 4 5 1017.8 1017.8 0.0
20/11:00pm 21.6 23.9 16.8 74 2.9 CALM 0 0 0 0 1017.9 1017.9 0.0
20/10:30pm 22.0 22.6 16.7 72 3.2 NE 9 13 5 7 1017.9 1017.9 0.0
20/10:00pm 22.1 22.5 16.4 70 3.5 ENE 9 13 5 7 1017.6 1017.6 0.0
20/09:30pm 22.1 22.5 16.4 70 3.5 E 9 17 5 9 1017.0 1017.0 0.0
20/09:00pm 22.4 22.8 16.2 68 3.7 ENE 9 19 5 10 1016.7 1016.7 0.0
20/08:30pm 22.8 22.7 16.1 66 4.1 ENE 11 19 6 10 1016.3 1016.3 0.0
20/08:00pm 23.1 23.1 16.2 65 4.2 E 11 20 6 11 1016.0 1016.0 0.0
20/07:30pm 23.5 21.9 16.1 63 4.5 ENE 19 30 10 16 1015.6 1015.6 0.0
20/07:00pm 24.0 22.3 15.8 60 5.0 ENE 19 32 10 17 1015.2 1015.2 0.0
20/06:30pm 24.3 23.1 16.0 60 5.0 ENE 17 24 9 13 1014.8 1014.8 0.0
20/06:00pm 24.6 22.9 16.3 60 5.1 E 20 35 11 19 1014.3 1014.3 0.0
20/05:30pm 25.1 23.5 16.5 59 5.3 ENE 20 33 11 18 1013.9 1013.9 0.0
20/05:00pm 25.3 24.2 16.4 57 5.5 ENE 17 30 9 16 1013.6 1013.6 0.0
20/04:30pm 26.1 23.9 16.9 57 5.7 E 24 33 13 18 1013.6 1013.6 0.0
20/04:00pm 26.4 25.5 17.7 58 5.5 ESE 19 26 10 14 1013.9 1013.9 0.0
20/03:30pm 26.4 25.5 16.9 56 5.9 E 17 24 9 13 1014.3 1014.3 0.0
20/03:00pm 27.3 26.8 17.8 56 6.0 E 17 26 9 14 1014.6 1014.6 0.0
20/02:30pm 26.1 25.9 17.7 60 5.3 E 15 26 8 14 1014.9 1014.9 0.0
20/02:00pm 26.1 25.9 17.5 59 5.4 ESE 15 22 8 12 1015.0 1015.0 0.0
20/01:30pm 27.2 27.1 17.9 56 5.9 ENE 15 28 8 15 1015.3 1015.3 0.0
20/01:00pm 26.5 26.1 18.1 60 5.3 E 17 26 9 14 1015.8 1015.8 0.0
20/12:30pm 26.7 25.9 18.0 59 5.5 ESE 19 28 10 15 1016.1 1016.1 0.0
20/12:00pm 24.7 23.6 17.4 64 4.5 ESE 19 24 10 13 1016.5 1016.5 0.0
20/11:30am 26.0 25.4 17.6 60 5.3 E 17 22 9 12 1016.5 1016.5 0.0
20/11:00am 25.7 26.3 18.6 65 4.5 ENE 13 20 7 11 1016.6 1016.6 0.0
20/10:30am 24.9 25.0 17.4 63 4.7 NE 13 19 7 10 1016.6 1016.6 0.0
20/10:00am 25.1 27.0 17.6 63 4.7 N 4 13 2 7 1016.6 1016.6 0.0
20/09:30am 25.0 26.5 17.7 64 4.6 ESE 6 9 3 5 1016.6 1016.6 0.0
20/09:00am 24.2 25.3 17.9 68 3.9 SSE 9 13 5 7 1016.5 1016.5 0.0
20/08:30am 24.1 25.7 19.2 74 3.1 S 9 13 5 7 1016.4 1016.4 0.0
20/08:00am 21.4 24.7 19.1 87 1.5 CALM 0 6 0 3 1016.1 1016.1 0.0
20/07:30am 20.5 23.8 19.2 92 0.8 CALM 0 0 0 0 1015.9 1015.9 0.0
20/07:00am 19.9 22.1 19.2 96 0.4 N 6 7 3 4 1015.6 1015.6 0.0
20/06:30am 19.1 20.4 18.4 96 0.4 N 9 9 5 5 1015.3 1015.3 0.0
20/06:00am 18.2 20.0 17.4 95 0.5 N 4 11 2 6 1015.1 1015.1 0.0
20/05:30am 18.1 20.3 16.6 91 0.9 CALM 0 0 0 0 1014.7 1014.7 0.0
20/05:00am 19.4 22.1 17.7 90 1.0 CALM 0 0 0 0 1014.4 1014.4 0.0
20/04:30am 20.1 22.9 18.0 88 1.3 CALM 0 0 0 0 1014.2 1014.2 0.0
20/04:00am 20.3 23.2 18.2 88 1.3 CALM 0 0 0 0 1014.1 1014.1 0.0
20/03:30am 20.9 24.1 18.8 88 1.3 CALM 0 0 0 0 1014.1 1014.1 0.0
20/03:00am 20.9 23.5 18.5 86 1.5 S 2 6 1 3 1014.2 1014.2 0.0
20/02:30am 20.6 22.4 18.2 86 1.5 WSW 6 9 3 5 1014.5 1014.5 0.0
20/02:00am 21.1 23.9 17.9 82 2.0 CALM 0 0 0 0 1014.6 1014.6 0.0
20/01:30am 21.5 24.5 18.5 83 1.9 CALM 0 0 0 0 1014.7 1014.7 0.0
20/01:00am 21.7 23.7 18.7 83 1.9 SSW 6 7 3 4 1015.1 1015.1 0.0
20/12:30am 21.7 23.0 18.5 82 2.0 SW 9 9 5 5 1015.4 1015.4 0.0
20/12:00am 22.0 23.5 18.8 82 2.0 SSW 9 13 5 7 1015.4 1015.4 0.0
 
Date/Time
EDT
Temp
°C
App
Temp
°C
Dew
Point
Rel
Hum
%
Delta-T
°C
Wind Press
QNH
hPa
Press
MSL
hPa
Rain
since 9 am
mm
Dir
 
Spd
km/h
Gust
km/h
Spd
kts
Gust
kts
19/11:30pm 22.1 25.2 18.7 81 2.1 CALM 0 0 0 0 1015.2 1015.2 0.0
19/11:00pm 22.2 23.7 18.8 81 2.1 SSE 9 13 5 7 1015.3 1015.3 0.0
19/10:30pm 22.0 23.5 18.8 82 2.0 S 9 11 5 6 1015.2 1015.2 0.0
19/10:00pm 22.2 23.3 18.8 81 2.1 SSE 11 15 6 8 1015.0 1015.0 0.0

Other Formats:

Comma delimited format used in spreadsheet applications
http://www.bom.gov.au/fwo/IDN60801/IDN60801.94572.axf

JavaScript Object Notation format (JSON) in row-major order
http://www.bom.gov.au/fwo/IDN60801/IDN60801.94572.json